Time;durP1;ratioP1;P1;durP2;ratioP2;P2;SDS_P1;SDS_P2;PMS_P1;PMS_P2;Temp;Humidity;BMP_temperature;BMP_pressure;BME280_temperature;BME280_humidity;BME280_pressure;Samples;Min_cycle;Max_cycle;Signal;HPM_P1;HPM_P2
2021/01/30 00:01:38;;;;;;;;;;;;;;;9.83;70.97;99343.31;4959855;28;7424;-75
2021/01/30 00:04:04;;;;;;;;;;;;;;;9.85;71.16;99351.97;4961547;28;7350;-74
2021/01/30 00:06:30;;;;;;;;;;;;;;;9.83;71.32;99345.06;4961631;28;7188;-75
2021/01/30 00:08:55;;;;;;;;;;;;;;;9.82;71.07;99354.56;4962250;28;7192;-75
2021/01/30 00:11:21;;;;;;;;;;;;;;;9.81;70.78;99357.13;4962358;28;6921;-75
2021/01/30 00:13:46;;;;;;;;;;;;;;;9.82;70.86;99357.16;4961782;28;8458;-75
2021/01/30 00:16:14;;;;;;;;;;;;;;;9.83;70.77;99352.81;4963611;28;7372;-75
2021/01/30 00:18:40;;;;;;;;;;;;;;;9.83;71.34;99352.81;4963409;28;11372;-74
2021/01/30 00:21:06;;;;;;;;;;;;;;;9.82;70.83;99351.97;4962357;28;7199;-75
2021/01/30 00:23:31;;;;;;;;;;;;;;;9.81;71.07;99354.53;4977636;28;6796;-75
2021/01/30 00:25:57;;;;;;;;;;;;;;;9.78;71.20;99370.94;4963044;28;6871;-75
2021/01/30 00:28:22;;;;;;;;;;;;;;;9.77;71.06;99353.66;4961758;28;7299;-75
2021/01/30 00:30:48;;;;;;;;;;;;;;;9.76;70.92;99357.97;4961972;28;6822;-75
2021/01/30 00:33:13;;;;;;;;;;;;;;;9.78;70.53;99360.56;4962916;28;7170;-75
2021/01/30 00:35:39;;;;;;;;;;;;;;;9.77;70.54;99361.44;4977124;28;7200;-75
2021/01/30 00:38:04;;;;;;;;;;;;;;;9.76;71.04;99362.28;4978303;28;8692;-75
2021/01/30 00:40:30;;;;;;;;;;;;;;;9.77;70.96;99353.66;4976468;28;6822;-75
2021/01/30 00:42:56;;;;;;;;;;;;;;;9.77;70.91;99348.47;4962504;28;6802;-71
2021/01/30 00:45:23;;;;;;;;;;;;;;;9.75;70.94;99347.59;4975575;28;6784;-72
2021/01/30 00:47:48;;;;;;;;;;;;;;;9.74;71.04;99349.31;4991008;28;7169;-71
2021/01/30 00:50:15;;;;;;;;;;;;;;;9.74;70.91;99356.22;4960313;28;6780;-74
2021/01/30 00:52:42;;;;;;;;;;;;;;;9.75;70.79;99352.78;4952310;28;11200;-74
2021/01/30 00:55:12;;;;;;;;;;;;;;;9.73;70.99;99355.38;4968159;28;6946;-75
2021/01/30 00:57:37;;;;;;;;;;;;;;;9.73;70.84;99349.31;4963689;28;7477;-75
2021/01/30 01:00:22;;;;;;;;;;;;;;;9.72;70.70;99351.03;4962033;28;7165;-74
2021/01/30 01:02:48;;;;;;;;;;;;;;;9.72;71.34;99347.59;4976099;28;11146;-74
2021/01/30 01:05:14;;;;;;;;;;;;;;;9.74;71.00;99343.28;4993228;28;7445;-75
2021/01/30 01:07:41;;;;;;;;;;;;;;;9.73;70.89;99346.72;4978304;28;7075;-74
2021/01/30 01:10:06;;;;;;;;;;;;;;;9.73;71.07;99346.72;4974311;28;7319;-75
2021/01/30 01:12:32;;;;;;;;;;;;;;;9.72;70.67;99350.19;4961053;28;7171;-75
2021/01/30 01:14:58;;;;;;;;;;;;;;;9.70;70.76;99351.91;4976888;28;7466;-75
2021/01/30 01:17:23;;;;;;;;;;;;;;;9.70;71.16;99357.09;4959052;28;8472;-76
2021/01/30 01:19:49;;;;;;;;;;;;;;;9.69;71.04;99360.53;4976376;28;7452;-76
2021/01/30 01:22:14;;;;;;;;;;;;;;;9.69;71.02;99373.50;4963251;28;7084;-76
2021/01/30 01:24:40;;;;;;;;;;;;;;;9.70;70.82;99367.47;4959342;28;6986;-76
2021/01/30 01:27:05;;;;;;;;;;;;;;;9.68;71.24;99369.19;4976191;28;6943;-76
2021/01/30 01:29:31;;;;;;;;;;;;;;;9.66;70.40;99368.31;4991280;28;8851;-76
2021/01/30 01:31:56;;;;;;;;;;;;;;;9.63;70.84;99361.38;4973506;28;8492;-77
2021/01/30 01:34:23;;;;;;;;;;;;;;;9.65;70.71;99369.16;4958724;28;7255;-77
2021/01/30 01:36:53;;;;;;;;;;;;;;;9.66;70.53;99370.91;4977756;28;7708;-76
2021/01/30 01:39:18;;;;;;;;;;;;;;;9.65;70.64;99377.81;4974726;28;6982;-76
2021/01/30 01:41:44;;;;;;;;;;;;;;;9.64;70.83;99377.81;4968868;28;7192;-76
2021/01/30 01:44:09;;;;;;;;;;;;;;;9.65;70.75;99379.53;4960434;28;6787;-77
2021/01/30 01:46:38;;;;;;;;;;;;;;;9.64;70.75;99380.41;4962845;28;7391;-77
2021/01/30 01:49:10;;;;;;;;;;;;;;;9.62;70.86;99372.63;4975429;28;6905;-79
2021/01/30 01:51:44;;;;;;;;;;;;;;;9.63;70.73;99369.16;4976106;28;7614;-76
2021/01/30 01:54:17;;;;;;;;;;;;;;;9.61;70.84;99368.28;4975138;28;9022;-77
2021/01/30 01:56:42;;;;;;;;;;;;;;;9.61;70.63;99368.28;4992058;28;11634;-77
2021/01/30 01:59:14;;;;;;;;;;;;;;;9.59;71.24;99363.94;4968568;28;6810;-77
2021/01/30 02:01:39;;;;;;;;;;;;;;;9.57;70.86;99370.84;4989915;28;7023;-77
2021/01/30 02:04:10;;;;;;;;;;;;;;;9.55;71.47;99363.06;4963238;28;7541;-77
2021/01/30 02:06:37;;;;;;;;;;;;;;;9.57;71.25;99360.47;4978804;28;9090;-77
2021/01/30 02:09:05;;;;;;;;;;;;;;;9.56;70.81;99358.72;4978748;28;8291;-76
2021/01/30 02:11:31;;;;;;;;;;;;;;;9.55;70.80;99365.66;4965967;28;7428;-76
2021/01/30 02:13:56;;;;;;;;;;;;;;;9.56;70.79;99358.72;4964539;28;7327;-76
2021/01/30 02:16:33;;;;;;;;;;;;;;;9.53;70.67;99353.53;4980471;28;7048;-76
2021/01/30 02:19:27;;;;;;;;;;;;;;;9.54;71.17;99360.47;4977121;28;6877;-76
2021/01/30 02:21:55;;;;;;;;;;;;;;;9.52;71.03;99355.28;4962059;28;10961;-77
2021/01/30 02:24:36;;;;;;;;;;;;;;;9.52;71.01;99355.28;4965808;28;7058;-77
2021/01/30 02:27:23;;;;;;;;;;;;;;;9.47;70.76;99348.34;4964451;28;7355;-77
2021/01/30 02:30:00;;;;;;;;;;;;;;;9.49;70.64;99359.56;4965965;28;11199;-77
2021/01/30 02:32:38;;;;;;;;;;;;;;;9.47;70.64;99353.53;4959496;28;12881;-77
2021/01/30 02:35:28;;;;;;;;;;;;;;;9.48;70.94;99350.94;4979747;28;6911;-77
2021/01/30 02:38:13;;;;;;;;;;;;;;;9.47;70.89;99345.75;4961140;28;13136;-77
2021/01/30 02:40:41;;;;;;;;;;;;;;;9.43;70.82;99340.56;4962415;28;8456;-77
2021/01/30 02:43:09;;;;;;;;;;;;;;;9.44;71.35;99347.47;4980235;28;7096;-76
2021/01/30 02:45:49;;;;;;;;;;;;;;;9.45;71.02;99346.59;4993468;28;6965;-76
2021/01/30 02:48:17;;;;;;;;;;;;;;;9.42;70.96;99349.19;4977426;28;11146;-76
2021/01/30 02:50:45;;;;;;;;;;;;;;;9.43;71.19;99350.91;4967502;28;7902;-76
2021/01/30 02:53:13;;;;;;;;;;;;;;;9.43;70.88;99353.50;4992622;28;6800;-76
2021/01/30 02:55:38;;;;;;;;;;;;;;;9.42;71.03;99356.97;4993694;28;7296;-76
2021/01/30 02:58:04;;;;;;;;;;;;;;;9.43;71.08;99352.66;4964032;28;7278;-77
2021/01/30 03:00:30;;;;;;;;;;;;;;;9.43;70.82;99361.28;4978465;28;8273;-78
2021/01/30 03:02:55;;;;;;;;;;;;;;;9.38;70.99;99375.91;4978090;28;7256;-77
2021/01/30 03:05:21;;;;;;;;;;;;;;;9.38;70.81;99370.72;4961981;28;7456;-77
2021/01/30 03:08:20;;;;;;;;;;;;;;;9.38;71.14;99381.09;4978783;28;6800;-77
2021/01/30 03:10:57;;;;;;;;;;;;;;;9.38;70.72;99375.91;4991134;28;11232;-77
2021/01/30 03:13:33;;;;;;;;;;;;;;;9.36;70.93;99375.03;4992419;28;11139;-76
2021/01/30 03:16:04;;;;;;;;;;;;;;;9.36;70.86;99377.63;4991142;28;6825;-77
2021/01/30 03:18:36;;;;;;;;;;;;;;;9.34;71.12;99368.97;4991242;28;6808;-77
2021/01/30 03:21:09;;;;;;;;;;;;;;;9.32;70.69;99370.69;4994693;28;7461;-77
2021/01/30 03:23:35;;;;;;;;;;;;;;;9.32;71.18;99378.47;4977869;28;6827;-77
2021/01/30 03:26:01;;;;;;;;;;;;;;;9.29;71.03;99367.22;4978652;28;6999;-76
2021/01/30 03:28:27;;;;;;;;;;;;;;;9.28;70.68;99374.13;4979540;28;7260;-76
2021/01/30 03:30:52;;;;;;;;;;;;;;;9.29;70.79;99375.00;4977272;28;7132;-76
2021/01/30 03:33:18;;;;;;;;;;;;;;;9.27;70.94;99377.59;4987365;28;7211;-76
2021/01/30 03:35:43;;;;;;;;;;;;;;;9.23;71.11;99377.56;4962139;28;7426;-76
2021/01/30 03:38:09;;;;;;;;;;;;;;;9.23;70.82;99383.59;4962949;28;7657;-77
2021/01/30 03:40:36;;;;;;;;;;;;;;;9.20;70.80;99386.16;4960838;28;6800;-77
2021/01/30 03:43:02;;;;;;;;;;;;;;;9.21;70.95;99393.09;4958854;28;8447;-76
2021/01/30 03:45:28;;;;;;;;;;;;;;;9.18;71.27;99390.47;4977571;28;7231;-76
2021/01/30 03:47:54;;;;;;;;;;;;;;;9.15;70.54;99399.06;4977699;28;6792;-76
2021/01/30 03:50:20;;;;;;;;;;;;;;;9.12;70.61;99406.81;4976548;28;7296;-77
2021/01/30 03:52:45;;;;;;;;;;;;;;;9.12;71.07;99414.59;4974798;28;6784;-76
2021/01/30 03:55:11;;;;;;;;;;;;;;;9.12;70.81;99411.13;4978627;28;7248;-77
2021/01/30 03:57:37;;;;;;;;;;;;;;;9.09;71.11;99406.81;4960700;28;7563;-77
2021/01/30 04:00:06;;;;;;;;;;;;;;;9.07;71.18;99416.28;4992388;28;7482;-76
2021/01/30 04:02:32;;;;;;;;;;;;;;;9.05;71.10;99417.13;4976028;28;7515;-76
2021/01/30 04:04:57;;;;;;;;;;;;;;;9.05;70.79;99422.31;4962568;28;7162;-76
2021/01/30 04:07:23;;;;;;;;;;;;;;;9.01;70.68;99415.34;4963601;28;6850;-77
2021/01/30 04:09:49;;;;;;;;;;;;;;;8.98;71.13;99415.34;4977746;28;7144;-76
2021/01/30 04:12:14;;;;;;;;;;;;;;;8.95;70.85;99418.78;4992281;28;7902;-76
2021/01/30 04:14:40;;;;;;;;;;;;;;;8.95;70.89;99420.50;4976053;28;7782;-76
2021/01/30 04:17:09;;;;;;;;;;;;;;;8.91;70.96;99419.59;4978298;28;6803;-76
2021/01/30 04:19:35;;;;;;;;;;;;;;;8.88;71.04;99429.94;4961549;28;7233;-76
2021/01/30 04:22:01;;;;;;;;;;;;;;;8.86;71.00;99428.19;4962335;28;8046;-77
2021/01/30 04:24:26;;;;;;;;;;;;;;;8.84;71.10;99428.19;4961449;28;7215;-77
2021/01/30 04:26:52;;;;;;;;;;;;;;;8.80;71.00;99424.66;4961174;28;7332;-76
2021/01/30 04:29:17;;;;;;;;;;;;;;;8.80;71.08;99421.22;4964006;28;11081;-76
2021/01/30 04:31:43;;;;;;;;;;;;;;;8.77;71.26;99422.06;4978457;28;7250;-76
2021/01/30 04:34:08;;;;;;;;;;;;;;;8.74;70.84;99416.88;4977877;28;7211;-77
2021/01/30 04:36:34;;;;;;;;;;;;;;;8.70;71.07;99420.28;4978586;28;7192;-77
2021/01/30 04:38:59;;;;;;;;;;;;;;;8.68;71.09;99416.81;4963442;28;7232;-76
2021/01/30 04:41:50;;;;;;;;;;;;;;;8.65;70.82;99419.38;4976565;28;7769;-76
2021/01/30 04:44:20;;;;;;;;;;;;;;;8.64;70.83;99420.22;4993292;28;7307;-76
2021/01/30 04:47:09;;;;;;;;;;;;;;;8.61;70.74;99417.63;4976921;28;7567;-77
2021/01/30 04:50:01;;;;;;;;;;;;;;;8.58;71.02;99414.97;4959067;28;10999;-77
2021/01/30 04:52:43;;;;;;;;;;;;;;;8.57;70.95;99413.25;4992376;28;11351;-76
2021/01/30 04:55:31;;;;;;;;;;;;;;;8.53;70.95;99408.91;4975950;28;8861;-76
2021/01/30 04:58:07;;;;;;;;;;;;;;;8.51;70.82;99414.06;4976000;28;11270;-76
2021/01/30 05:00:49;;;;;;;;;;;;;;;8.51;71.09;99418.38;4974574;28;7235;-76
2021/01/30 05:03:36;;;;;;;;;;;;;;;8.47;71.06;99417.47;4977159;28;7215;-76
2021/01/30 05:06:10;;;;;;;;;;;;;;;8.46;70.99;99413.16;4962121;28;11297;-76
2021/01/30 05:08:45;;;;;;;;;;;;;;;8.43;71.14;99422.59;4976995;28;8321;-76
2021/01/30 05:11:16;;;;;;;;;;;;;;;8.40;70.92;99423.41;4993126;28;7076;-76
2021/01/30 05:13:50;;;;;;;;;;;;;;;8.41;70.98;99424.28;4975648;28;7942;-76
2021/01/30 05:16:37;;;;;;;;;;;;;;;8.38;71.13;99419.94;4960039;28;6963;-77
2021/01/30 05:19:04;;;;;;;;;;;;;;;8.39;70.89;99423.41;4972585;28;11244;-77
2021/01/30 05:21:50;;;;;;;;;;;;;;;8.34;71.09;99415.59;4970961;28;8291;-77
2021/01/30 05:24:18;;;;;;;;;;;;;;;8.32;70.91;99414.69;4969072;28;7263;-76
2021/01/30 05:27:12;;;;;;;;;;;;;;;8.29;70.77;99406.91;4958338;28;6856;-76
2021/01/30 05:29:56;;;;;;;;;;;;;;;8.29;70.80;99411.19;4960427;28;10958;-77
2021/01/30 05:33:02;;;;;;;;;;;;;;;8.27;71.07;99418.06;4989770;28;8598;-77
2021/01/30 05:35:32;;;;;;;;;;;;;;;8.23;71.05;99418.06;4974476;28;12528;-76
2021/01/30 05:38:05;;;;;;;;;;;;;;;8.21;71.10;99416.31;4977059;28;11160;-76
2021/01/30 05:40:30;;;;;;;;;;;;;;;8.22;70.61;99421.50;4964824;28;11046;-77
2021/01/30 05:43:00;;;;;;;;;;;;;;;8.19;71.05;99416.25;4965696;28;11230;-77
2021/01/30 05:45:47;;;;;;;;;;;;;;;8.18;71.06;99419.69;4995975;28;7160;-77
2021/01/30 05:48:18;;;;;;;;;;;;;;;8.17;71.18;99419.69;4949229;28;11222;-76
2021/01/30 05:51:00;;;;;;;;;;;;;;;8.16;70.99;99430.88;4978939;28;7550;-76
2021/01/30 05:53:26;;;;;;;;;;;;;;;8.14;70.75;99430.00;4976796;28;7567;-76
2021/01/30 05:55:51;;;;;;;;;;;;;;;8.10;71.12;99429.09;4950135;28;8498;-76
2021/01/30 05:58:22;;;;;;;;;;;;;;;8.11;70.79;99422.19;4964246;28;6819;-76
2021/01/30 06:00:48;;;;;;;;;;;;;;;8.11;70.68;99427.38;4994149;28;7192;-77
2021/01/30 06:03:25;;;;;;;;;;;;;;;8.08;70.57;99422.16;4978725;28;6815;-77
2021/01/30 06:05:52;;;;;;;;;;;;;;;8.06;70.85;99429.91;4963682;28;7084;-76
2021/01/30 06:08:24;;;;;;;;;;;;;;;8.05;71.20;99432.47;4964217;28;8990;-76
2021/01/30 06:11:13;;;;;;;;;;;;;;;8.02;70.72;99438.47;4979751;28;7168;-76
2021/01/30 06:13:57;;;;;;;;;;;;;;;8.00;70.95;99444.44;4959221;28;12745;-76
2021/01/30 06:16:41;;;;;;;;;;;;;;;7.99;70.52;99442.72;4977606;28;7453;-76
2021/01/30 06:19:17;;;;;;;;;;;;;;;7.98;70.63;99446.16;4964597;28;12429;-76
2021/01/30 06:21:43;;;;;;;;;;;;;;;7.96;70.69;99451.31;4962455;28;7504;-75
2021/01/30 06:24:10;;;;;;;;;;;;;;;7.96;70.86;99453.91;4994082;28;7885;-79
2021/01/30 06:26:44;;;;;;;;;;;;;;;7.92;70.44;99442.66;4962603;28;7758;-78
2021/01/30 06:29:36;;;;;;;;;;;;;;;7.95;70.64;99434.06;4994646;28;7375;-77
2021/01/30 06:32:25;;;;;;;;;;;;;;;7.90;70.71;99435.72;4969235;28;11510;-76
2021/01/30 06:34:54;;;;;;;;;;;;;;;7.88;70.83;99437.44;4961666;28;11421;-74
2021/01/30 06:37:40;;;;;;;;;;;;;;;7.88;70.92;99437.44;4960571;28;7992;-74
2021/01/30 06:40:32;;;;;;;;;;;;;;;7.85;70.55;99439.97;4961646;28;11047;-74
2021/01/30 06:43:10;;;;;;;;;;;;;;;7.83;70.51;99433.94;4964509;28;7300;-74
2021/01/30 06:45:37;;;;;;;;;;;;;;;7.80;70.71;99439.03;4976908;28;11174;-77
2021/01/30 06:48:08;;;;;;;;;;;;;;;7.79;70.76;99433.00;4978287;28;11081;-75
2021/01/30 06:50:36;;;;;;;;;;;;;;;7.76;70.85;99438.13;4976535;28;12768;-74
2021/01/30 06:53:22;;;;;;;;;;;;;;;7.77;70.90;99446.75;4978755;28;6817;-74
2021/01/30 06:55:48;;;;;;;;;;;;;;;7.75;70.96;99440.69;4961454;28;13066;-74
2021/01/30 06:58:37;;;;;;;;;;;;;;;7.72;70.81;99446.69;4964073;28;7368;-73
2021/01/30 07:01:13;;;;;;;;;;;;;;;7.70;70.95;99447.53;4964155;28;8153;-74
2021/01/30 07:03:59;;;;;;;;;;;;;;;7.68;70.82;99454.38;4952280;28;11000;-74
2021/01/30 07:06:45;;;;;;;;;;;;;;;7.67;70.97;99444.91;4976503;28;7027;-75
2021/01/30 07:09:23;;;;;;;;;;;;;;;7.65;70.79;99454.34;4960961;28;10984;-76
2021/01/30 07:12:16;;;;;;;;;;;;;;;7.64;70.84;99453.47;4963197;28;6962;-76
2021/01/30 07:14:59;;;;;;;;;;;;;;;7.61;70.54;99451.72;4949250;28;11142;-76
2021/01/30 07:17:40;;;;;;;;;;;;;;;7.75;70.22;99451.03;4972531;28;7137;-75
2021/01/30 07:20:23;;;;;;;;;;;;;;;7.81;69.73;99459.75;4978884;28;12488;-75
2021/01/30 07:23:03;;;;;;;;;;;;;;;7.84;69.66;99466.69;4959028;28;11536;-75
2021/01/30 07:25:51;;;;;;;;;;;;;;;7.83;69.90;99462.34;4951210;28;6861;-75
2021/01/30 07:28:26;;;;;;;;;;;;;;;7.84;69.68;99462.38;4951770;28;11201;-75
2021/01/30 07:31:06;;;;;;;;;;;;;;;7.86;69.60;99452.06;4978740;28;6828;-75
2021/01/30 07:33:51;;;;;;;;;;;;;;;7.87;69.63;99454.66;4960501;28;8327;-76
2021/01/30 07:36:26;;;;;;;;;;;;;;;7.87;69.54;99453.78;4976517;28;11341;-76
2021/01/30 07:39:22;;;;;;;;;;;;;;;7.88;68.93;99452.94;4961053;28;6819;-75
2021/01/30 07:41:54;;;;;;;;;;;;;;;7.89;69.17;99454.69;4964633;28;12551;-75
2021/01/30 07:44:30;;;;;;;;;;;;;;;7.90;69.25;99452.09;4976089;28;7392;-77
2021/01/30 07:47:48;;;;;;;;;;;;;;;7.88;69.24;99455.53;4945508;28;8140;-76
2021/01/30 07:50:28;;;;;;;;;;;;;;;7.89;68.90;99462.44;4953047;28;13031;-77
2021/01/30 07:53:06;;;;;;;;;;;;;;;7.88;68.81;99471.03;4960359;28;7219;-76
2021/01/30 07:55:32;;;;;;;;;;;;;;;7.86;69.13;99467.56;4993278;28;7137;-78
2021/01/30 07:58:00;;;;;;;;;;;;;;;7.88;68.85;99455.53;4967319;28;8301;-81
2021/01/30 08:00:41;;;;;;;;;;;;;;;7.89;68.88;99468.47;4979888;28;7022;-77
2021/01/30 08:03:41;;;;;;;;;;;;;;;7.90;68.84;99464.16;4980271;28;11343;-78
2021/01/30 08:06:18;;;;;;;;;;;;;;;7.91;68.54;99452.97;4964101;28;11745;-77
2021/01/30 08:09:01;;;;;;;;;;;;;;;7.94;68.89;99453.00;4966270;28;10906;-78
2021/01/30 08:11:32;;;;;;;;;;;;;;;7.90;68.47;99453.81;4972227;28;7398;-78
2021/01/30 08:14:25;;;;;;;;;;;;;;;7.93;68.32;99459.03;4995368;28;8659;-78
2021/01/30 08:17:12;;;;;;;;;;;;;;;7.96;68.32;99459.06;4964056;28;11156;-78
2021/01/30 08:20:00;;;;;;;;;;;;;;;8.00;68.18;99452.22;4993617;28;11499;-78
2021/01/30 08:22:43;;;;;;;;;;;;;;;8.02;68.16;99451.41;4932949;28;12990;-77
2021/01/30 08:25:15;;;;;;;;;;;;;;;8.02;68.26;99448.81;4980262;28;11091;-79
2021/01/30 08:27:43;;;;;;;;;;;;;;;8.00;67.99;99449.63;5000328;28;11643;-79
2021/01/30 08:30:17;;;;;;;;;;;;;;;8.08;68.01;99448.03;4970970;28;11789;-79
2021/01/30 08:33:03;;;;;;;;;;;;;;;8.13;67.74;99447.22;4972784;28;13026;-79
2021/01/30 08:35:29;;;;;;;;;;;;;;;8.19;67.21;99441.25;5006829;28;8487;-79
2021/01/30 08:38:04;;;;;;;;;;;;;;;8.23;67.26;99443.91;4972240;28;6791;-79
2021/01/30 08:40:53;;;;;;;;;;;;;;;8.26;67.01;99443.06;4973353;28;7060;-79
2021/01/30 08:43:22;;;;;;;;;;;;;;;8.29;67.15;99445.69;4970965;28;12325;-78
2021/01/30 08:45:47;;;;;;;;;;;;;;;8.22;67.33;99442.19;4990251;28;6856;-79
2021/01/30 08:48:16;;;;;;;;;;;;;;;8.22;66.77;99444.75;4991363;28;8580;-78
2021/01/30 08:50:42;;;;;;;;;;;;;;;8.21;67.21;99455.97;4982263;28;8786;-77
2021/01/30 08:53:17;;;;;;;;;;;;;;;8.22;66.77;99447.34;4983240;28;7256;-76
2021/01/30 08:55:43;;;;;;;;;;;;;;;8.28;66.75;99441.38;4979565;28;11461;-78
2021/01/30 08:58:27;;;;;;;;;;;;;;;8.33;66.55;99444.00;4964303;28;6880;-76
2021/01/30 09:00:54;;;;;;;;;;;;;;;8.37;65.93;99438.03;4975624;28;11169;-78
2021/01/30 09:03:39;;;;;;;;;;;;;;;8.40;66.08;99432.88;4966438;28;6962;-76
2021/01/30 09:06:05;;;;;;;;;;;;;;;8.39;66.46;99439.78;4944646;28;7246;-77
2021/01/30 09:08:40;;;;;;;;;;;;;;;8.41;66.78;99432.03;4960359;28;8869;-77
2021/01/30 09:11:34;;;;;;;;;;;;;;;8.48;65.99;99439.03;4946522;28;6852;-75
2021/01/30 09:14:11;;;;;;;;;;;;;;;8.53;66.25;99438.22;4996986;28;11252;-78
2021/01/30 09:16:54;;;;;;;;;;;;;;;8.17;63.97;99437.78;4981495;28;7297;-77
2021/01/30 09:19:36;;;;;;;;;;;;;;;8.42;65.00;99441.56;4981245;28;11112;-76
2021/01/30 09:22:16;;;;;;;;;;;;;;;8.54;65.35;99447.72;4981367;28;6836;-75
2021/01/30 09:24:54;;;;;;;;;;;;;;;8.61;64.75;99446.09;4963028;28;12689;-78
2021/01/30 09:27:26;;;;;;;;;;;;;;;8.67;64.60;99455.63;4986394;28;12404;-77
2021/01/30 09:29:53;;;;;;;;;;;;;;;8.74;64.71;99447.91;4966161;28;6808;-76
2021/01/30 09:32:27;;;;;;;;;;;;;;;8.82;64.47;99461.81;4973628;28;7735;-77
2021/01/30 09:35:04;;;;;;;;;;;;;;;8.83;63.84;99457.50;4972576;28;7244;-75
2021/01/30 09:37:38;;;;;;;;;;;;;;;8.88;63.95;99454.97;4967539;28;7352;-74
2021/01/30 09:40:20;;;;;;;;;;;;;;;8.94;63.47;99450.69;4952777;28;8454;-76
2021/01/30 09:43:05;;;;;;;;;;;;;;;8.99;63.32;99455.91;4960695;28;12445;-76
2021/01/30 09:45:31;;;;;;;;;;;;;;;9.04;63.30;99452.53;4981261;28;8492;-73
2021/01/30 09:47:56;;;;;;;;;;;;;;;9.14;63.18;99448.28;4980167;28;7104;-76
2021/01/30 09:50:32;;;;;;;;;;;;;;;9.18;63.38;99452.63;4972997;28;7608;-72
2021/01/30 09:53:03;;;;;;;;;;;;;;;9.13;63.27;99451.72;4981295;28;7539;-72
2021/01/30 09:55:29;;;;;;;;;;;;;;;9.18;63.37;99451.75;4994119;28;6875;-74
2021/01/30 09:57:58;;;;;;;;;;;;;;;9.23;63.43;99455.28;4954989;28;6841;-73
2021/01/30 10:00:29;;;;;;;;;;;;;;;9.23;63.25;99450.97;4979197;28;7124;-75
2021/01/30 10:03:09;;;;;;;;;;;;;;;9.25;62.82;99451.84;4970423;28;6831;-74
2021/01/30 10:05:34;;;;;;;;;;;;;;;9.28;63.09;99446.66;4972233;28;6988;-74
2021/01/30 10:08:31;;;;;;;;;;;;;;;9.32;63.02;99443.25;4979754;28;7159;-74
2021/01/30 10:11:06;;;;;;;;;;;;;;;9.35;62.88;99448.44;4965869;28;11738;-74
2021/01/30 10:13:31;;;;;;;;;;;;;;;9.38;63.56;99437.22;4978147;28;6891;-74
2021/01/30 10:15:57;;;;;;;;;;;;;;;9.47;62.92;99441.63;4965343;28;6953;-76
2021/01/30 10:18:23;;;;;;;;;;;;;;;9.54;62.51;99439.06;4963268;28;7144;-74
2021/01/30 10:21:03;;;;;;;;;;;;;;;9.57;62.30;99433.03;4962668;28;6829;-75
2021/01/30 10:23:34;;;;;;;;;;;;;;;9.60;62.21;99426.13;4961637;28;7177;-74
2021/01/30 10:26:21;;;;;;;;;;;;;;;9.62;62.05;99427.03;4991783;28;6920;-75
2021/01/30 10:28:49;;;;;;;;;;;;;;;9.60;62.17;99427.88;4985813;28;11142;-76
2021/01/30 10:31:17;;;;;;;;;;;;;;;9.61;62.24;99420.13;4962472;28;6819;-74
2021/01/30 10:33:46;;;;;;;;;;;;;;;9.61;62.01;99425.31;4960188;28;11277;-74
2021/01/30 10:36:11;;;;;;;;;;;;;;;9.64;62.26;99425.31;4979124;28;6831;-75
2021/01/30 10:38:37;;;;;;;;;;;;;;;9.67;61.98;99420.16;4979045;28;6863;-74
2021/01/30 10:41:04;;;;;;;;;;;;;;;9.69;61.99;99422.75;4960982;28;7894;-75
2021/01/30 10:43:39;;;;;;;;;;;;;;;9.70;61.95;99417.56;4978802;28;7672;-73
2021/01/30 10:46:13;;;;;;;;;;;;;;;9.73;61.88;99411.53;4992880;28;7258;-74
2021/01/30 10:48:39;;;;;;;;;;;;;;;9.79;61.66;99415.88;4992339;28;7391;-74
2021/01/30 10:51:15;;;;;;;;;;;;;;;9.81;61.43;99409.88;4978811;28;7672;-74
2021/01/30 10:53:41;;;;;;;;;;;;;;;9.82;61.93;99414.19;4953390;28;7267;-74
2021/01/30 10:56:13;;;;;;;;;;;;;;;9.83;61.69;99404.69;4978334;28;7331;-76
2021/01/30 10:58:38;;;;;;;;;;;;;;;9.84;61.65;99407.28;4959889;28;8508;-74
2021/01/30 11:01:05;;;;;;;;;;;;;;;9.86;61.89;99400.38;4979409;28;7247;-74
2021/01/30 11:03:52;;;;;;;;;;;;;;;9.88;61.80;99401.25;4965256;28;7352;-74
2021/01/30 11:06:43;;;;;;;;;;;;;;;9.90;61.38;99396.94;4962928;28;11027;-75
2021/01/30 11:09:17;;;;;;;;;;;;;;;9.89;61.85;99391.75;4958431;28;7458;-72
2021/01/30 11:11:46;;;;;;;;;;;;;;;9.93;61.26;99386.56;4979116;28;11541;-74
2021/01/30 11:14:27;;;;;;;;;;;;;;;9.97;60.95;99390.91;4991467;28;7305;-76
2021/01/30 11:16:53;;;;;;;;;;;;;;;9.95;61.38;99390.03;4976805;28;11237;-76
2021/01/30 11:19:33;;;;;;;;;;;;;;;10.00;61.67;99390.91;4974093;28;7092;-76
2021/01/30 11:22:11;;;;;;;;;;;;;;;10.07;61.11;99387.50;4968635;28;7120;-75
2021/01/30 11:24:46;;;;;;;;;;;;;;;10.09;60.61;99387.50;4974463;28;7233;-73
2021/01/30 11:27:34;;;;;;;;;;;;;;;10.12;61.12;99387.50;4993359;28;7074;-77
2021/01/30 11:30:13;;;;;;;;;;;;;;;10.13;60.99;99380.59;4962930;28;11208;-74
2021/01/30 11:32:39;;;;;;;;;;;;;;;10.09;60.68;99384.91;4991821;28;6828;-76
2021/01/30 11:35:05;;;;;;;;;;;;;;;10.10;60.89;99384.03;4961666;28;7330;-74
2021/01/30 11:37:31;;;;;;;;;;;;;;;10.15;60.71;99386.63;4979542;28;6857;-77
2021/01/30 11:40:00;;;;;;;;;;;;;;;10.18;60.75;99384.06;4949096;28;7429;-76
2021/01/30 11:42:28;;;;;;;;;;;;;;;10.15;61.00;99378.84;4963217;28;7550;-77
2021/01/30 11:44:54;;;;;;;;;;;;;;;10.10;61.04;99372.78;4978177;28;7222;-75
2021/01/30 11:47:19;;;;;;;;;;;;;;;10.15;60.79;99377.13;4966054;28;7064;-76
2021/01/30 11:49:47;;;;;;;;;;;;;;;10.23;60.41;99372.00;4961049;28;7068;-75
2021/01/30 11:52:22;;;;;;;;;;;;;;;10.33;60.13;99372.03;4963842;28;7099;-75
2021/01/30 11:54:47;;;;;;;;;;;;;;;10.36;60.01;99371.16;4960180;28;11452;-75
2021/01/30 11:57:13;;;;;;;;;;;;;;;10.43;59.88;99359.94;4978752;28;7271;-75
2021/01/30 11:59:38;;;;;;;;;;;;;;;10.41;59.97;99360.78;4956116;28;6837;-76
2021/01/30 12:02:04;;;;;;;;;;;;;;;10.45;60.18;99358.22;4965927;28;7216;-76
2021/01/30 12:04:29;;;;;;;;;;;;;;;10.47;59.76;99356.47;4965512;28;8487;-77
2021/01/30 12:06:55;;;;;;;;;;;;;;;10.50;59.82;99358.22;4979063;28;6792;-76
2021/01/30 12:09:20;;;;;;;;;;;;;;;10.55;59.45;99352.16;4964211;28;7850;-77
2021/01/30 12:11:46;;;;;;;;;;;;;;;10.57;59.76;99350.41;4982123;28;7120;-77
2021/01/30 12:14:11;;;;;;;;;;;;;;;10.63;59.49;99350.44;4965288;28;7224;-77
2021/01/30 12:16:37;;;;;;;;;;;;;;;10.58;59.07;99346.97;4980264;28;6792;-77
2021/01/30 12:19:02;;;;;;;;;;;;;;;10.60;59.13;99346.97;4966026;28;6803;-77
2021/01/30 12:21:28;;;;;;;;;;;;;;;10.65;59.26;99346.13;4963405;28;7220;-76
2021/01/30 12:23:53;;;;;;;;;;;;;;;10.69;58.78;99331.41;4965960;28;7505;-77
2021/01/30 12:26:22;;;;;;;;;;;;;;;10.81;58.77;99330.50;4961318;28;7057;-77
2021/01/30 12:28:48;;;;;;;;;;;;;;;10.90;58.66;99327.94;4974694;28;11360;-75
2021/01/30 12:31:14;;;;;;;;;;;;;;;10.96;57.88;99322.72;4963101;28;8216;-77
2021/01/30 12:33:39;;;;;;;;;;;;;;;11.11;58.21;99321.84;4962755;28;9547;-77
2021/01/30 12:36:06;;;;;;;;;;;;;;;11.21;58.15;99318.34;4963236;28;7100;-77
2021/01/30 12:38:33;;;;;;;;;;;;;;;11.36;57.42;99307.06;4961973;28;7125;-77
2021/01/30 12:40:58;;;;;;;;;;;;;;;11.47;57.46;99315.69;4979895;28;9041;-77
2021/01/30 12:43:24;;;;;;;;;;;;;;;11.55;56.88;99319.13;4961548;28;7049;-77
2021/01/30 12:45:49;;;;;;;;;;;;;;;11.46;56.66;99309.63;4962203;28;6949;-77
2021/01/30 12:48:16;;;;;;;;;;;;;;;11.64;57.12;99319.09;4966886;28;12644;-75
2021/01/30 12:50:45;;;;;;;;;;;;;;;11.64;56.79;99310.44;4963267;28;7059;-75
2021/01/30 12:53:11;;;;;;;;;;;;;;;11.73;56.12;99308.66;4960308;28;7015;-75
2021/01/30 12:55:36;;;;;;;;;;;;;;;11.80;56.53;99305.16;4989840;28;7461;-75
2021/01/30 12:58:19;;;;;;;;;;;;;;;11.93;56.16;99312.91;4963631;28;7581;-73
2021/01/30 13:00:45;;;;;;;;;;;;;;;11.86;56.03;99312.09;4959080;28;7451;-75
2021/01/30 13:03:11;;;;;;;;;;;;;;;11.77;56.12;99318.16;4977656;28;7483;-75
2021/01/30 13:05:37;;;;;;;;;;;;;;;11.78;56.69;99311.22;4977009;28;7223;-74
2021/01/30 13:08:04;;;;;;;;;;;;;;;11.83;56.21;99309.53;4963212;28;7256;-73
2021/01/30 13:10:29;;;;;;;;;;;;;;;11.80;56.68;99306.91;4978152;28;7152;-76
2021/01/30 13:12:55;;;;;;;;;;;;;;;11.84;55.90;99301.69;4963645;28;7502;-76
2021/01/30 13:15:21;;;;;;;;;;;;;;;11.99;55.77;99295.53;4993929;28;8470;-80
2021/01/30 13:17:46;;;;;;;;;;;;;;;12.09;55.31;99292.00;4992873;28;7099;-75
2021/01/30 13:20:15;;;;;;;;;;;;;;;11.87;53.19;99293.88;4977239;28;6820;-75
2021/01/30 13:22:43;;;;;;;;;;;;;;;10.53;57.62;99298.50;4991523;28;7232;-73
2021/01/30 13:25:09;;;;;;;;;;;;;;;9.93;56.49;99298.41;4962374;28;7154;-75
2021/01/30 13:27:35;;;;;;;;;;;;;;;9.74;57.94;99297.47;4974266;28;7463;-74
2021/01/30 13:30:03;;;;;;;;;;;;;;;9.75;57.45;99288.84;4960971;28;6791;-75